createdAt,value
2017-09-21T00:00:41.185Z,15.97
2017-09-21T00:03:09.543Z,22.47
2017-09-21T00:05:37.862Z,16.63
2017-09-21T00:08:06.988Z,13.73
2017-09-21T00:10:35.312Z,18.53
2017-09-21T00:13:03.646Z,20.00
2017-09-21T00:15:32.734Z,19.80
2017-09-21T00:18:01.085Z,25.43
2017-09-21T00:20:29.422Z,25.53
2017-09-21T00:22:58.521Z,27.33
2017-09-21T00:25:26.842Z,31.07
2017-09-21T00:27:55.185Z,32.70
2017-09-21T00:30:23.521Z,27.87
2017-09-21T00:32:52.640Z,28.33
2017-09-21T00:35:20.960Z,44.87
2017-09-21T00:37:49.303Z,46.03
2017-09-21T00:40:17.637Z,48.90
2017-09-21T00:42:45.987Z,56.67
2017-09-21T00:45:14.300Z,59.10
2017-09-21T00:47:43.419Z,58.00
2017-09-21T00:50:12.505Z,44.57
2017-09-21T00:52:40.876Z,58.73
2017-09-21T00:55:09.204Z,54.27
2017-09-21T00:57:37.570Z,51.23
2017-09-21T01:00:05.904Z,64.87
2017-09-21T01:02:35.026Z,69.43
2017-09-21T01:05:19.954Z,57.33
2017-09-21T01:07:48.311Z,57.83
2017-09-21T01:10:16.652Z,36.63
2017-09-21T01:12:45.773Z,66.63
2017-09-21T01:15:14.124Z,79.53
2017-09-21T01:17:43.236Z,46.87
2017-09-21T01:20:11.582Z,67.60
2017-09-21T01:22:40.701Z,76.50
2017-09-21T01:25:09.044Z,84.50
2017-09-21T01:27:38.188Z,102.30
2017-09-21T01:30:06.530Z,68.00
2017-09-21T01:32:34.880Z,123.33
2017-09-21T01:35:03.232Z,49.70
2017-09-21T01:37:31.571Z,162.33
2017-09-21T01:39:59.947Z,75.53
2017-09-21T01:42:29.049Z,64.47
2017-09-21T01:44:57.418Z,51.80
2017-09-21T01:47:25.770Z,86.80
2017-09-21T01:49:54.134Z,64.43
2017-09-21T01:52:23.236Z,29.23
2017-09-21T01:54:51.603Z,43.07
2017-09-21T01:57:19.927Z,30.37
2017-09-21T01:59:48.288Z,44.10
2017-09-21T02:02:16.635Z,81.60
2017-09-21T02:04:44.999Z,57.80
2017-09-21T02:07:13.320Z,39.33
2017-09-21T02:09:41.670Z,46.83
2017-09-21T02:12:10.009Z,50.20
2017-09-21T02:14:38.361Z,32.73
2017-09-21T02:17:06.693Z,31.97
2017-09-21T02:19:35.033Z,44.43
2017-09-21T02:22:03.346Z,44.70
2017-09-21T02:24:32.441Z,60.30
2017-09-21T02:27:01.609Z,42.90
2017-09-21T02:29:29.939Z,34.83
2017-09-21T02:31:58.258Z,28.63
2017-09-21T02:34:26.601Z,27.60
2017-09-21T02:36:54.921Z,33.97
2017-09-21T02:39:23.273Z,86.70
2017-09-21T02:41:51.572Z,57.07
2017-09-21T02:44:19.910Z,39.13
2017-09-21T02:46:48.259Z,114.70
2017-09-21T02:49:17.362Z,30.23
2017-09-21T02:51:45.677Z,54.47
2017-09-21T02:54:14.026Z,80.43
2017-09-21T02:56:42.358Z,62.47
2017-09-21T02:59:10.695Z,46.40
2017-09-21T03:01:39.775Z,55.97
2017-09-21T03:04:08.874Z,48.20
2017-09-21T03:06:41.832Z,88.43
2017-09-21T03:09:10.177Z,71.90
2017-09-21T03:11:38.486Z,93.77
2017-09-21T03:14:06.809Z,97.90
2017-09-21T03:16:35.111Z,53.30
2017-09-21T03:19:03.441Z,38.30
2017-09-21T03:21:31.756Z,92.40
2017-09-21T03:24:00.085Z,89.17
2017-09-21T03:26:28.411Z,80.93
2017-09-21T03:28:56.760Z,77.10
2017-09-21T03:31:25.071Z,53.93
2017-09-21T03:33:53.401Z,28.13
2017-09-21T03:36:21.731Z,117.37
2017-09-21T03:38:50.069Z,69.47
2017-09-21T03:41:18.381Z,47.40
2017-09-21T03:43:46.710Z,50.93
2017-09-21T03:46:15.022Z,49.87
2017-09-21T03:48:44.139Z,62.27
2017-09-21T03:51:12.447Z,69.17
2017-09-21T03:53:40.778Z,56.90
2017-09-21T03:56:09.861Z,47.00
2017-09-21T03:58:38.969Z,40.40
2017-09-21T04:01:08.040Z,95.50
2017-09-21T04:03:36.378Z,174.23
2017-09-21T04:06:04.698Z,82.30
2017-09-21T04:08:33.034Z,136.83
2017-09-21T04:11:01.354Z,107.53
2017-09-21T04:13:29.693Z,102.10
2017-09-21T04:15:58.018Z,100.70
2017-09-21T04:18:27.131Z,98.50
2017-09-21T04:20:56.254Z,66.33
2017-09-21T04:23:24.605Z,120.33
2017-09-21T04:25:53.688Z,128.97
2017-09-21T04:28:22.797Z,90.83
2017-09-21T04:30:51.885Z,81.67
2017-09-21T04:33:20.187Z,73.03
2017-09-21T04:35:48.517Z,110.13
2017-09-21T04:38:16.831Z,74.50
2017-09-21T04:40:45.953Z,76.00
2017-09-21T04:43:14.274Z,51.27
2017-09-21T04:45:42.622Z,73.37
2017-09-21T04:48:10.949Z,75.50
2017-09-21T04:50:40.072Z,84.17
2017-09-21T04:53:08.377Z,43.97
2017-09-21T04:55:36.709Z,61.50
2017-09-21T04:58:05.781Z,52.90
2017-09-21T05:00:34.123Z,40.77
2017-09-21T05:03:02.461Z,57.63
2017-09-21T05:05:31.563Z,80.97
2017-09-21T05:08:00.644Z,99.23
2017-09-21T05:10:29.770Z,37.87
2017-09-21T05:12:58.086Z,49.77
2017-09-21T05:15:26.440Z,71.83
2017-09-21T05:17:54.766Z,25.33
2017-09-21T05:20:23.103Z,32.37
2017-09-21T05:22:51.417Z,52.37
2017-09-21T05:25:19.744Z,51.10
2017-09-21T05:27:48.067Z,46.07
2017-09-21T05:30:16.420Z,44.77
2017-09-21T05:32:44.736Z,58.60
2017-09-21T05:35:13.072Z,26.70
2017-09-21T05:37:41.379Z,41.57
2017-09-21T05:40:09.711Z,80.07
2017-09-21T05:42:38.794Z,77.63
2017-09-21T05:45:07.903Z,47.43
2017-09-21T05:47:36.983Z,35.70
2017-09-21T05:50:06.108Z,28.03
2017-09-21T05:52:34.425Z,44.87
2017-09-21T05:55:03.361Z,97.33
2017-09-21T05:57:32.445Z,80.13
2017-09-21T06:00:01.554Z,46.33
2017-09-21T06:02:29.888Z,50.87
2017-09-21T06:04:58.213Z,69.60
2017-09-21T06:07:27.295Z,73.40
2017-09-21T06:09:56.409Z,89.43
2017-09-21T06:12:24.730Z,39.30
2017-09-21T06:14:53.072Z,62.63
2017-09-21T06:17:21.381Z,103.20
2017-09-21T06:19:49.726Z,89.50
2017-09-21T06:22:18.056Z,79.60
2017-09-21T06:24:46.399Z,68.63
2017-09-21T06:27:14.705Z,95.57
2017-09-21T06:29:43.040Z,56.60
2017-09-21T06:32:11.371Z,35.87
2017-09-21T06:34:39.696Z,58.57
2017-09-21T06:37:08.015Z,83.40
2017-09-21T06:39:36.344Z,63.80
2017-09-21T06:42:05.425Z,32.23
2017-09-21T06:44:33.756Z,54.53
2017-09-21T06:47:02.077Z,26.43
2017-09-21T06:49:30.409Z,32.57
2017-09-21T06:51:58.727Z,54.43
2017-09-21T06:54:27.075Z,32.47
2017-09-21T06:56:55.395Z,29.50
2017-09-21T06:59:23.729Z,38.40
2017-09-21T07:01:52.038Z,37.50
2017-09-21T07:04:20.373Z,43.20
2017-09-21T07:06:48.691Z,41.07
2017-09-21T07:09:17.027Z,34.37
2017-09-21T07:11:45.342Z,26.77
2017-09-21T07:14:13.678Z,51.27
2017-09-21T07:16:41.973Z,37.53
2017-09-21T07:19:10.320Z,28.40
2017-09-21T07:21:39.394Z,36.07
2017-09-21T07:24:07.745Z,76.03
2017-09-21T07:26:36.054Z,27.90
2017-09-21T07:29:04.362Z,53.90
2017-09-21T07:31:32.693Z,90.47
2017-09-21T07:34:01.010Z,36.07
2017-09-21T07:36:29.371Z,31.87
2017-09-21T07:38:57.680Z,49.97
2017-09-21T07:41:26.014Z,85.57
2017-09-21T07:43:54.327Z,75.60
2017-09-21T07:46:23.433Z,64.97
2017-09-21T07:48:51.760Z,46.17
2017-09-21T07:51:20.096Z,54.50
2017-09-21T07:53:48.404Z,28.47
2017-09-21T07:56:16.734Z,55.03
2017-09-21T07:58:45.818Z,75.50
2017-09-21T08:01:14.160Z,57.43
2017-09-21T08:03:42.468Z,67.00
2017-09-21T08:06:10.813Z,72.33
2017-09-21T08:08:39.135Z,46.13
2017-09-21T08:11:07.490Z,89.93
2017-09-21T08:13:35.804Z,29.30
2017-09-21T08:16:04.905Z,52.50
2017-09-21T08:18:33.216Z,54.13
2017-09-21T08:21:01.553Z,60.77
2017-09-21T08:23:29.871Z,65.87
2017-09-21T08:25:58.196Z,50.07
2017-09-21T08:28:26.521Z,27.20
2017-09-21T08:30:54.843Z,35.10
2017-09-21T08:33:23.166Z,28.27
2017-09-21T08:35:51.513Z,44.00
2017-09-21T08:38:19.835Z,24.60
2017-09-21T08:40:48.167Z,31.93
2017-09-21T08:43:16.473Z,28.30
2017-09-21T08:45:44.810Z,32.80
2017-09-21T08:48:13.135Z,25.40
2017-09-21T08:50:41.473Z,24.27
2017-09-21T08:53:09.785Z,25.23
2017-09-21T08:55:38.120Z,18.17
2017-09-21T08:58:06.447Z,20.87
2017-09-21T09:00:34.826Z,25.43
2017-09-21T09:03:03.192Z,28.37
2017-09-21T09:05:31.524Z,21.13
2017-09-21T09:07:59.863Z,23.00
2017-09-21T09:10:28.220Z,22.77
2017-09-21T09:12:57.317Z,22.60
2017-09-21T09:15:26.419Z,19.00
2017-09-21T09:17:54.741Z,24.30
2017-09-21T09:20:23.107Z,23.30
2017-09-21T09:22:51.417Z,20.70
2017-09-21T09:25:19.753Z,25.60
2017-09-21T09:27:48.085Z,28.40
2017-09-21T09:30:16.424Z,31.13
2017-09-21T09:32:44.745Z,30.07
2017-09-21T09:35:13.096Z,29.13
2017-09-21T09:37:41.412Z,25.90
2017-09-21T09:40:09.741Z,30.53
2017-09-21T09:42:38.087Z,34.03
2017-09-21T09:45:06.401Z,42.10
2017-09-21T09:47:34.775Z,45.30
2017-09-21T09:50:03.128Z,45.10
2017-09-21T09:52:31.488Z,39.53
2017-09-21T09:54:59.822Z,45.23
2017-09-21T09:57:28.205Z,31.17
2017-09-21T09:59:56.549Z,36.60
2017-09-21T10:02:24.906Z,28.57
2017-09-21T10:04:54.501Z,32.13
2017-09-21T10:07:24.583Z,27.83
2017-09-21T10:09:52.908Z,28.90
2017-09-21T10:12:21.276Z,31.80
2017-09-21T10:14:49.595Z,31.50
2017-09-21T10:17:17.964Z,24.00
2017-09-21T10:19:47.056Z,26.53
2017-09-21T10:22:16.174Z,31.17
2017-09-21T10:24:44.497Z,22.90
2017-09-21T10:27:12.844Z,22.33
2017-09-21T10:29:41.176Z,14.23
2017-09-21T10:32:09.514Z,12.50
2017-09-21T10:34:37.847Z,17.43
2017-09-21T10:37:06.193Z,14.70
2017-09-21T10:39:34.513Z,15.03
2017-09-21T10:42:02.847Z,13.27
2017-09-21T10:44:31.174Z,18.03
2017-09-21T10:46:59.518Z,20.90
2017-09-21T10:49:27.837Z,19.67
2017-09-21T10:51:56.165Z,15.70
2017-09-21T10:54:24.502Z,12.93
2017-09-21T10:56:52.842Z,15.73
2017-09-21T10:59:21.936Z,13.40
2017-09-21T11:01:50.281Z,15.33
2017-09-21T11:04:18.602Z,16.17
2017-09-21T11:06:47.718Z,17.03
2017-09-21T11:09:16.039Z,15.20
2017-09-21T11:11:44.386Z,13.70
2017-09-21T11:14:12.710Z,21.77
2017-09-21T11:16:41.055Z,14.67
2017-09-21T11:19:09.368Z,13.03
2017-09-21T11:21:37.763Z,13.10
2017-09-21T11:24:06.073Z,13.77
2017-09-21T11:26:34.429Z,13.70
2017-09-21T11:29:02.743Z,12.87
2017-09-21T11:31:31.087Z,11.33
2017-09-21T11:33:59.418Z,15.90
2017-09-21T11:36:27.775Z,12.27
2017-09-21T11:38:56.103Z,17.93
2017-09-21T11:41:24.436Z,15.93
2017-09-21T11:43:52.753Z,11.50
2017-09-21T11:46:21.094Z,15.50
2017-09-21T11:48:49.427Z,18.83
2017-09-21T11:51:17.769Z,12.90
2017-09-21T11:53:46.084Z,17.23
2017-09-21T11:56:14.422Z,19.57
2017-09-21T11:58:42.759Z,25.10
2017-09-21T12:01:11.869Z,21.93
2017-09-21T12:03:40.189Z,15.43
2017-09-21T12:06:08.534Z,10.63
2017-09-21T12:08:36.859Z,10.77
2017-09-21T12:11:05.189Z,9.40
2017-09-21T12:13:33.497Z,16.67
2017-09-21T12:16:01.862Z,7.70
2017-09-21T12:18:30.180Z,7.90
2017-09-21T12:20:58.486Z,9.70
2017-09-21T12:23:27.590Z,12.23
2017-09-21T12:25:55.937Z,15.80
2017-09-21T12:28:24.285Z,12.73
2017-09-21T12:30:52.602Z,12.73
2017-09-21T12:33:21.702Z,8.00
2017-09-21T12:35:50.038Z,18.57
2017-09-21T12:38:18.383Z,12.33
2017-09-21T12:40:46.692Z,10.00
2017-09-21T12:43:15.056Z,10.77
2017-09-21T12:45:43.382Z,12.17
2017-09-21T12:48:11.713Z,12.60
2017-09-21T12:50:40.026Z,8.63
2017-09-21T12:53:08.363Z,11.30
2017-09-21T12:55:36.673Z,11.50
2017-09-21T12:58:05.010Z,11.30
2017-09-21T13:00:33.373Z,9.77
2017-09-21T13:03:02.496Z,10.73
2017-09-21T13:05:30.816Z,15.00
2017-09-21T13:07:59.149Z,8.27
2017-09-21T13:10:27.470Z,9.30
2017-09-21T13:12:55.806Z,10.47
2017-09-21T13:15:24.118Z,8.03
2017-09-21T13:17:52.439Z,9.50
2017-09-21T13:20:20.803Z,14.10
2017-09-21T13:22:49.148Z,5.37
2017-09-21T13:25:17.450Z,5.63
2017-09-21T13:27:49.627Z,7.40
2017-09-21T13:30:17.946Z,4.23
2017-09-21T13:32:46.285Z,5.50
2017-09-21T13:35:14.610Z,5.73
2017-09-21T13:37:42.949Z,4.67
2017-09-21T13:40:11.258Z,5.17
2017-09-21T13:42:39.586Z,4.03
2017-09-21T13:45:07.908Z,7.57
2017-09-21T13:47:36.262Z,3.23
2017-09-21T13:50:04.571Z,4.87
2017-09-21T13:52:32.909Z,7.17
2017-09-21T13:55:01.215Z,3.43
2017-09-21T13:57:30.457Z,3.50
2017-09-21T13:59:58.760Z,3.23
2017-09-21T14:02:27.089Z,5.13
2017-09-21T14:04:55.404Z,7.10
2017-09-21T14:07:23.730Z,3.60
2017-09-21T14:09:52.805Z,8.77
2017-09-21T14:12:22.765Z,3.23
2017-09-21T14:14:51.080Z,3.30
2017-09-21T14:17:19.405Z,2.50
2017-09-21T14:19:47.708Z,4.57
2017-09-21T14:22:16.035Z,3.67
2017-09-21T14:24:44.358Z,3.53
2017-09-21T14:27:12.695Z,3.00
2017-09-21T14:29:41.030Z,2.80
2017-09-21T14:32:09.348Z,4.03
2017-09-21T14:34:37.680Z,2.90
2017-09-21T14:37:05.996Z,2.57
2017-09-21T14:39:34.327Z,7.83
2017-09-21T14:42:02.633Z,4.10
2017-09-21T14:44:30.963Z,2.77
2017-09-21T14:47:00.041Z,3.73
2017-09-21T14:49:28.369Z,5.43
2017-09-21T14:51:56.678Z,5.27
2017-09-21T14:54:25.027Z,4.73
2017-09-21T14:56:53.347Z,2.83
2017-09-21T14:59:21.673Z,5.37
2017-09-21T15:01:49.991Z,3.30
2017-09-21T15:04:18.323Z,8.43
2017-09-21T15:06:46.640Z,2.33
2017-09-21T15:09:14.977Z,2.47
2017-09-21T15:11:43.299Z,2.50
2017-09-21T15:14:11.632Z,2.67
2017-09-21T15:16:39.956Z,3.10
2017-09-21T15:19:08.285Z,4.43
2017-09-21T15:21:36.592Z,2.80
2017-09-21T15:24:04.937Z,3.70
2017-09-21T15:26:33.242Z,3.90
2017-09-21T15:29:02.333Z,5.90
2017-09-21T15:31:30.647Z,3.93
2017-09-21T15:33:58.961Z,3.40
2017-09-21T15:36:28.038Z,8.70
2017-09-21T15:38:56.370Z,4.57
2017-09-21T15:41:25.452Z,3.03
2017-09-21T15:43:53.795Z,5.17
2017-09-21T15:46:22.862Z,5.50
2017-09-21T15:48:51.197Z,2.70
2017-09-21T15:51:19.508Z,3.57
2017-09-21T15:53:47.815Z,5.67
2017-09-21T15:56:16.149Z,3.00
2017-09-21T15:58:44.462Z,5.33
2017-09-21T16:01:12.790Z,4.83
2017-09-21T16:03:41.102Z,6.70
2017-09-21T16:06:09.433Z,6.80
2017-09-21T16:08:38.522Z,7.77
2017-09-21T16:11:07.629Z,9.10
2017-09-21T16:13:35.955Z,3.33
2017-09-21T16:16:04.272Z,2.00
2017-09-21T16:18:33.358Z,3.27
2017-09-21T16:21:01.694Z,6.10
2017-09-21T16:23:30.067Z,4.00
2017-09-21T16:25:58.388Z,4.40
2017-09-21T16:28:26.692Z,6.10
2017-09-21T16:30:55.785Z,3.93
2017-09-21T16:33:24.862Z,4.03
2017-09-21T16:35:53.232Z,3.93
2017-09-21T16:38:21.544Z,4.00
2017-09-21T16:40:50.652Z,2.40
2017-09-21T16:43:18.957Z,6.73
2017-09-21T16:45:47.294Z,4.57
2017-09-21T16:48:16.375Z,4.90
2017-09-21T16:50:44.712Z,4.50
2017-09-21T16:53:13.036Z,6.20
2017-09-21T16:55:42.118Z,7.20
2017-09-21T16:58:11.234Z,4.70
2017-09-21T17:00:40.318Z,7.00
2017-09-21T17:03:08.651Z,8.30
2017-09-21T17:05:36.965Z,7.37
2017-09-21T17:08:05.308Z,4.53
2017-09-21T17:10:33.617Z,4.43
2017-09-21T17:13:02.007Z,4.50
2017-09-21T17:15:31.107Z,5.03
2017-09-21T17:17:59.444Z,12.83
2017-09-21T17:20:27.765Z,10.17
2017-09-21T17:22:56.166Z,9.00
2017-09-21T17:25:25.240Z,8.57
2017-09-21T17:27:53.573Z,7.10
2017-09-21T17:30:21.881Z,9.43
2017-09-21T17:32:50.230Z,7.37
2017-09-21T17:35:18.541Z,5.63
2017-09-21T17:37:46.888Z,4.10
2017-09-21T17:40:15.185Z,5.63
2017-09-21T17:42:43.530Z,12.37
2017-09-21T17:45:11.850Z,6.77
2017-09-21T17:47:40.204Z,6.57
2017-09-21T17:50:08.510Z,6.13
2017-09-21T17:52:36.848Z,5.87
2017-09-21T17:55:05.163Z,5.63
2017-09-21T17:57:33.543Z,6.50
2017-09-21T18:00:01.992Z,5.47
2017-09-21T18:02:30.370Z,7.47
2017-09-21T18:04:58.672Z,10.20
2017-09-21T18:07:27.014Z,10.07
2017-09-21T18:12:58.025Z,16.60
2017-09-21T18:15:26.342Z,14.40
2017-09-21T18:17:54.699Z,16.13
2017-09-21T18:20:23.791Z,11.43
2017-09-21T18:22:52.097Z,9.00
2017-09-21T18:25:21.198Z,16.97
2017-09-21T18:27:49.499Z,7.60
2017-09-21T18:30:17.832Z,7.40
2017-09-21T18:32:46.143Z,8.50
2017-09-21T18:35:14.498Z,9.20
2017-09-21T18:37:43.577Z,7.60
2017-09-21T18:40:11.935Z,11.63
2017-09-21T18:42:40.243Z,9.93
2017-09-21T18:45:09.341Z,10.00
2017-09-21T18:47:38.421Z,10.50
2017-09-21T18:50:06.776Z,12.00
2017-09-21T18:52:35.122Z,18.90
2017-09-21T18:55:04.302Z,21.40
2017-09-21T18:57:33.439Z,27.00
2017-09-21T19:00:01.754Z,36.30
2017-09-21T19:02:30.873Z,30.70
2017-09-21T19:04:59.957Z,28.17
2017-09-21T19:07:29.072Z,22.63
2017-09-21T19:09:57.426Z,12.83
2017-09-21T19:12:25.763Z,12.80
2017-09-21T19:14:54.069Z,8.80
2017-09-21T19:17:22.421Z,12.33
2017-09-21T19:19:50.749Z,11.13
2017-09-21T19:22:19.866Z,11.27
2017-09-21T19:24:48.186Z,11.40
2017-09-21T19:27:16.524Z,13.70
2017-09-21T19:29:44.845Z,21.43
2017-09-21T19:32:13.232Z,12.80
2017-09-21T19:34:41.569Z,13.33
2017-09-21T19:37:09.890Z,14.20
2017-09-21T19:39:38.224Z,11.13
2017-09-21T19:42:06.523Z,10.53
2017-09-21T19:44:34.858Z,11.83
2017-09-21T19:47:03.986Z,8.83
2017-09-21T19:49:32.378Z,13.43
2017-09-21T19:52:00.697Z,12.70
2017-09-21T19:54:29.033Z,12.63
2017-09-21T19:56:57.353Z,10.17
2017-09-21T19:59:25.740Z,10.80
2017-09-21T20:01:54.061Z,16.70
2017-09-21T20:04:22.457Z,11.60
2017-09-21T20:06:50.829Z,9.93
2017-09-21T20:09:19.176Z,13.10
2017-09-21T20:11:48.248Z,20.57
2017-09-21T20:14:16.583Z,11.37
2017-09-21T20:16:44.912Z,14.00
2017-09-21T20:19:13.296Z,10.17
2017-09-21T20:21:41.622Z,18.73
2017-09-21T20:24:09.970Z,13.07
2017-09-21T20:26:39.066Z,13.33
2017-09-21T20:29:08.171Z,11.80
2017-09-21T20:31:36.484Z,13.80
2017-09-21T20:34:04.826Z,11.60
2017-09-21T20:36:33.143Z,13.90
2017-09-21T20:39:01.474Z,14.90
2017-09-21T20:41:29.806Z,10.30
2017-09-21T20:43:58.162Z,13.17
2017-09-21T20:46:26.479Z,13.70
2017-09-21T20:48:54.813Z,10.47
2017-09-21T20:51:23.136Z,12.20
2017-09-21T20:53:51.474Z,19.00
2017-09-21T20:56:19.786Z,9.97
2017-09-21T20:58:48.131Z,13.40
2017-09-21T21:01:16.457Z,10.00
2017-09-21T21:03:45.569Z,11.40
2017-09-21T21:06:14.649Z,10.27
2017-09-21T21:08:42.999Z,10.03
2017-09-21T21:11:11.313Z,15.30
2017-09-21T21:13:39.650Z,10.97
2017-09-21T21:16:07.961Z,11.33
2017-09-21T21:18:36.323Z,9.70
2017-09-21T21:21:04.645Z,11.60
2017-09-21T21:23:32.976Z,9.07
2017-09-21T21:26:01.284Z,10.90
2017-09-21T21:28:29.629Z,12.07
2017-09-21T21:30:57.949Z,13.80
2017-09-21T21:33:27.070Z,14.60
2017-09-21T21:35:55.377Z,9.43
2017-09-21T21:38:23.729Z,12.60
2017-09-21T21:40:52.051Z,12.17
2017-09-21T21:43:20.399Z,10.40
2017-09-21T21:45:48.714Z,13.87
2017-09-21T21:48:17.054Z,10.33
2017-09-21T21:50:45.360Z,12.60
2017-09-21T21:53:13.689Z,11.57
2017-09-21T21:55:42.758Z,10.73
2017-09-21T21:58:11.079Z,8.93
2017-09-21T22:00:39.380Z,10.30
2017-09-21T22:03:07.721Z,10.90
2017-09-21T22:05:36.049Z,10.83
2017-09-21T22:08:04.382Z,10.03
2017-09-21T22:10:32.688Z,10.80
2017-09-21T22:13:01.012Z,12.23
2017-09-21T22:15:29.325Z,11.97
2017-09-21T22:17:57.664Z,12.53
2017-09-21T22:20:25.974Z,11.33
2017-09-21T22:22:54.284Z,10.27
2017-09-21T22:25:22.643Z,12.67
2017-09-21T22:27:50.959Z,13.87
2017-09-21T22:30:19.285Z,16.03
2017-09-21T22:32:48.369Z,12.53
2017-09-21T22:35:17.456Z,11.10
2017-09-21T22:37:52.168Z,12.13
2017-09-21T22:40:20.502Z,11.27
2017-09-21T22:42:48.797Z,9.50
2017-09-21T22:45:17.125Z,11.27
2017-09-21T22:47:45.436Z,10.43
2017-09-21T22:50:13.789Z,9.90
2017-09-21T22:52:42.110Z,13.30
2017-09-21T22:55:10.440Z,10.47
2017-09-21T22:57:39.523Z,11.00
2017-09-21T23:00:07.877Z,10.17
2017-09-21T23:02:36.202Z,14.07
2017-09-21T23:05:04.558Z,10.87
2017-09-21T23:07:33.649Z,13.13
2017-09-21T23:10:01.996Z,16.33
2017-09-21T23:12:30.314Z,11.00
2017-09-21T23:14:58.650Z,11.10
2017-09-21T23:17:26.961Z,10.10
2017-09-21T23:19:55.310Z,11.17
2017-09-21T23:22:29.565Z,10.87
2017-09-21T23:24:57.902Z,11.43
2017-09-21T23:27:26.209Z,10.70
2017-09-21T23:29:54.536Z,11.23
2017-09-21T23:32:22.840Z,14.13
2017-09-21T23:34:51.177Z,11.03
2017-09-21T23:37:20.253Z,13.40
2017-09-21T23:39:48.603Z,16.90
2017-09-21T23:42:16.908Z,15.87
2017-09-21T23:44:45.270Z,9.60
2017-09-21T23:47:13.577Z,14.30
2017-09-21T23:49:41.909Z,11.30
2017-09-21T23:52:10.234Z,11.07
2017-09-21T23:54:38.568Z,11.30
2017-09-21T23:57:06.872Z,9.60
2017-09-21T23:59:35.209Z,9.63
